Time;durP1;ratioP1;P1;durP2;ratioP2;P2;SDS_P1;SDS_P2;PMS_P1;PMS_P2;Temp;Humidity;BMP_temperature;BMP_pressure;BME280_temperature;BME280_humidity;BME280_pressure;Samples;Min_cycle;Max_cycle;Signal;HPM_P1;HPM_P2
2022/11/12 00:00:50;;;;;;;21.67;15.97;;;;;;;;;;1939161;74;26368;-82
2022/11/12 00:03:18;;;;;;;21.63;15.70;;;;;;;;;;1951421;73;26275;-82
2022/11/12 00:05:48;;;;;;;22.20;15.77;;;;;;;;;;1939183;72;26389;-81
2022/11/12 00:08:16;;;;;;;22.30;17.35;;;;;;;;;;1951594;73;25276;-81
2022/11/12 00:10:45;;;;;;;22.50;17.50;;;;;;;;;;1951905;73;22145;-81
2022/11/12 00:13:14;;;;;;;21.77;17.37;;;;;;;;;;1939516;74;23744;-81
2022/11/12 00:15:42;;;;;;;19.85;17.70;;;;;;;;;;1951339;73;26265;-82
2022/11/12 00:18:10;;;;;;;21.90;17.90;;;;;;;;;;1951309;73;26496;-82
2022/11/12 00:20:39;;;;;;;19.85;17.50;;;;;;;;;;1938849;74;26619;-81
2022/11/12 00:23:07;;;;;;;21.07;16.97;;;;;;;;;;1951410;73;26095;-82
2022/11/12 00:25:36;;;;;;;22.63;17.27;;;;;;;;;;1939285;74;26318;-82
2022/11/12 00:28:05;;;;;;;20.97;17.50;;;;;;;;;;1951312;73;26215;-81
2022/11/12 00:30:35;;;;;;;22.87;17.23;;;;;;;;;;1939136;74;26275;-81
2022/11/12 00:33:03;;;;;;;21.10;16.73;;;;;;;;;;1951577;73;26187;-82
2022/11/12 00:35:32;;;;;;;20.83;17.30;;;;;;;;;;1951213;73;26301;-82
2022/11/12 00:38:01;;;;;;;19.87;17.53;;;;;;;;;;1951598;73;26315;-81
2022/11/12 00:40:29;;;;;;;20.93;17.97;;;;;;;;;;1951515;73;26191;-81
2022/11/12 00:42:58;;;;;;;19.93;17.77;;;;;;;;;;1951278;73;26203;-83
2022/11/12 00:45:26;;;;;;;20.60;18.27;;;;;;;;;;1951115;73;26225;-81
2022/11/12 00:47:55;;;;;;;21.10;17.60;;;;;;;;;;1950961;73;26291;-81
2022/11/12 00:50:23;;;;;;;19.17;17.27;;;;;;;;;;1951086;73;24611;-81
2022/11/12 00:52:52;;;;;;;21.17;18.17;;;;;;;;;;1951366;73;23510;-81
2022/11/12 00:55:21;;;;;;;20.97;18.77;;;;;;;;;;1951312;73;26181;-81
2022/11/12 00:57:49;;;;;;;23.30;20.90;;;;;;;;;;1938868;74;30358;-83
2022/11/12 01:00:19;;;;;;;29.30;21.60;;;;;;;;;;1951152;73;26320;-82
2022/11/12 01:02:48;;;;;;;26.47;22.47;;;;;;;;;;1951238;73;26254;-80
2022/11/12 01:05:16;;;;;;;32.33;24.47;;;;;;;;;;1939044;74;26239;-82
2022/11/12 01:07:45;;;;;;;33.63;24.53;;;;;;;;;;1951677;72;22038;-81
2022/11/12 01:10:14;;;;;;;32.70;24.40;;;;;;;;;;1951154;73;31436;-82
2022/11/12 01:12:42;;;;;;;32.37;23.40;;;;;;;;;;1939328;74;24129;-82
2022/11/12 01:15:11;;;;;;;32.73;24.00;;;;;;;;;;1951300;73;26108;-81
2022/11/12 01:17:40;;;;;;;31.90;23.85;;;;;;;;;;1951213;73;28303;-82
2022/11/12 01:20:08;;;;;;;32.90;24.15;;;;;;;;;;1939352;74;26937;-83
2022/11/12 01:22:37;;;;;;;34.90;24.43;;;;;;;;;;1951372;73;26194;-81
2022/11/12 01:25:06;;;;;;;29.20;23.13;;;;;;;;;;1951297;73;26222;-82
2022/11/12 01:27:34;;;;;;;32.55;25.00;;;;;;;;;;1938853;74;26360;-82
2022/11/12 01:30:03;;;;;;;34.10;24.47;;;;;;;;;;1951177;73;22101;-81
2022/11/12 01:32:35;;;;;;;30.80;24.60;;;;;;;;;;1951528;73;22746;-81
2022/11/12 01:35:03;;;;;;;30.00;23.80;;;;;;;;;;1951742;73;23148;-81
2022/11/12 01:37:32;;;;;;;31.30;26.10;;;;;;;;;;1938972;74;26864;-81
2022/11/12 01:40:00;;;;;;;30.20;23.05;;;;;;;;;;1951371;73;27630;-82
2022/11/12 01:42:29;;;;;;;28.53;22.63;;;;;;;;;;1939593;74;23092;-81
2022/11/12 01:44:57;;;;;;;27.63;21.97;;;;;;;;;;1951721;73;27198;-81
2022/11/12 01:47:27;;;;;;;27.93;22.43;;;;;;;;;;1939241;74;27719;-81
2022/11/12 01:49:57;;;;;;;27.47;21.73;;;;;;;;;;1951588;73;26201;-80
2022/11/12 01:52:27;;;;;;;26.30;22.40;;;;;;;;;;1951434;73;26214;-81
2022/11/12 01:54:57;;;;;;;28.67;21.47;;;;;;;;;;1951690;73;26348;-81
2022/11/12 01:57:27;;;;;;;29.37;22.03;;;;;;;;;;1939512;74;25258;-81
2022/11/12 01:59:57;;;;;;;27.80;21.47;;;;;;;;;;1951624;73;26202;-82
2022/11/12 02:02:25;;;;;;;27.73;21.33;;;;;;;;;;1951271;73;26243;-81
2022/11/12 02:04:55;;;;;;;26.97;20.33;;;;;;;;;;1939440;74;26295;-82
2022/11/12 02:07:24;;;;;;;24.10;19.50;;;;;;;;;;1951435;72;26235;-82
2022/11/12 02:09:53;;;;;;;24.30;20.23;;;;;;;;;;1951613;73;26155;-81
2022/11/12 02:15:08;;;;;;;22.13;18.07;;;;;;;;;;1951539;73;26691;-82
2022/11/12 02:17:36;;;;;;;24.03;19.60;;;;;;;;;;1950832;73;26510;-81
2022/11/12 02:20:07;;;;;;;24.47;19.77;;;;;;;;;;1951370;73;26798;-83
2022/11/12 02:22:35;;;;;;;22.17;18.13;;;;;;;;;;1951628;73;26803;-83
2022/11/12 02:25:04;;;;;;;22.40;18.20;;;;;;;;;;1951544;73;26203;-81
2022/11/12 02:27:32;;;;;;;24.60;18.73;;;;;;;;;;1951364;73;26325;-82
2022/11/12 02:30:01;;;;;;;22.97;17.83;;;;;;;;;;1939439;74;26704;-81
2022/11/12 02:32:29;;;;;;;21.40;18.83;;;;;;;;;;1951405;73;26716;-82
2022/11/12 02:34:57;;;;;;;21.57;18.00;;;;;;;;;;1939341;74;26252;-81
2022/11/12 02:37:26;;;;;;;20.97;17.37;;;;;;;;;;1951519;73;26210;-82
2022/11/12 02:39:54;;;;;;;25.05;18.50;;;;;;;;;;1939661;74;26182;-82
2022/11/12 02:42:22;;;;;;;20.93;18.50;;;;;;;;;;1951666;73;26620;-82
2022/11/12 02:44:51;;;;;;;23.77;18.37;;;;;;;;;;1939286;74;26197;-82
2022/11/12 02:47:21;;;;;;;25.30;19.05;;;;;;;;;;1950607;73;26997;-81
2022/11/12 02:49:49;;;;;;;22.37;18.33;;;;;;;;;;1951475;73;26150;-82
2022/11/12 02:52:17;;;;;;;24.97;18.63;;;;;;;;;;1951660;73;26303;-81
2022/11/12 02:54:45;;;;;;;23.60;18.93;;;;;;;;;;1939383;74;27304;-81
2022/11/12 02:57:14;;;;;;;21.60;18.20;;;;;;;;;;1951491;73;27417;-81
2022/11/12 02:59:42;;;;;;;21.33;17.50;;;;;;;;;;1939483;74;27235;-82
2022/11/12 03:02:10;;;;;;;22.83;19.17;;;;;;;;;;1951158;73;26198;-82
2022/11/12 03:04:39;;;;;;;21.73;17.47;;;;;;;;;;1939219;74;26325;-82
2022/11/12 03:07:08;;;;;;;21.10;16.80;;;;;;;;;;1951348;72;27207;-82
2022/11/12 03:09:36;;;;;;;19.63;16.93;;;;;;;;;;1939292;74;26298;-82
2022/11/12 03:12:05;;;;;;;20.53;15.87;;;;;;;;;;1951299;73;26164;-81
2022/11/12 03:14:33;;;;;;;19.40;15.93;;;;;;;;;;1951451;73;26188;-81
2022/11/12 03:17:02;;;;;;;19.27;16.53;;;;;;;;;;1939181;74;26687;-81
2022/11/12 03:19:30;;;;;;;19.17;16.10;;;;;;;;;;1951383;73;26202;-82
2022/11/12 03:21:58;;;;;;;22.17;16.07;;;;;;;;;;1951444;73;26206;-82
2022/11/12 03:24:27;;;;;;;20.03;16.20;;;;;;;;;;1939311;74;26177;-82
2022/11/12 03:26:56;;;;;;;20.10;17.10;;;;;;;;;;1951392;73;26352;-81
2022/11/12 03:29:25;;;;;;;22.83;17.80;;;;;;;;;;1951484;73;26271;-82
2022/11/12 03:31:53;;;;;;;22.40;17.70;;;;;;;;;;1951553;73;26311;-82
2022/11/12 03:34:21;;;;;;;21.87;18.33;;;;;;;;;;1951733;73;27052;-81
2022/11/12 03:36:49;;;;;;;22.73;18.37;;;;;;;;;;1939292;74;26308;-81
2022/11/12 03:39:18;;;;;;;20.60;18.40;;;;;;;;;;1951686;73;26272;-82
2022/11/12 03:41:46;;;;;;;20.43;18.27;;;;;;;;;;1939434;74;26178;-82
2022/11/12 03:44:14;;;;;;;25.53;18.80;;;;;;;;;;1951666;73;26055;-81
2022/11/12 03:46:43;;;;;;;22.30;18.93;;;;;;;;;;1951738;73;26647;-81
2022/11/12 03:49:11;;;;;;;21.45;18.75;;;;;;;;;;1952047;73;26522;-81
2022/11/12 03:51:39;;;;;;;24.27;19.67;;;;;;;;;;1953015;73;26645;-81
2022/11/12 03:54:08;;;;;;;23.07;19.83;;;;;;;;;;1940776;74;26295;-82
2022/11/12 03:56:36;;;;;;;21.93;19.63;;;;;;;;;;1952487;73;26351;-81
2022/11/12 03:59:05;;;;;;;22.53;20.13;;;;;;;;;;1952942;73;26217;-82
2022/11/12 04:01:33;;;;;;;23.87;21.30;;;;;;;;;;1940538;74;26622;-82
2022/11/12 04:04:02;;;;;;;27.60;22.00;;;;;;;;;;1954837;73;26236;-82
2022/11/12 04:09:16;;;;;;;21.63;19.13;;;;;;;;;;1957801;72;26274;-83
2022/11/12 04:11:45;;;;;;;22.30;19.77;;;;;;;;;;1944741;74;26214;-82
2022/11/12 04:14:13;;;;;;;23.30;20.23;;;;;;;;;;1956841;73;26207;-82
2022/11/12 04:22:14;;;;;;;23.03;19.80;;;;;;;;;;1957237;73;26297;-83
2022/11/12 04:27:29;;;;;;;25.73;19.93;;;;;;;;;;1955362;73;26227;-82
2022/11/12 04:30:17;;;;;;;25.83;21.00;;;;;;;;;;1942542;74;26105;-82
2022/11/12 04:32:49;;;;;;;26.40;20.30;;;;;;;;;;1953229;73;26271;-82
2022/11/12 04:35:18;;;;;;;23.10;19.50;;;;;;;;;;1951348;73;30663;-81
2022/11/12 04:37:47;;;;;;;25.50;19.20;;;;;;;;;;1952944;73;26329;-82
2022/11/12 04:45:51;;;;;;;19.30;17.33;;;;;;;;;;1952831;73;26143;-82
2022/11/12 04:48:19;;;;;;;20.50;17.70;;;;;;;;;;1953047;73;26642;-82
2022/11/12 04:50:49;;;;;;;21.20;17.80;;;;;;;;;;1952931;73;26175;-81
2022/11/12 04:53:17;;;;;;;19.60;17.50;;;;;;;;;;1941017;74;26284;-82
2022/11/12 04:55:47;;;;;;;23.20;17.70;;;;;;;;;;1952260;73;26260;-82
2022/11/12 04:58:15;;;;;;;18.97;17.00;;;;;;;;;;1952117;73;27239;-83
2022/11/12 05:00:44;;;;;;;20.63;17.80;;;;;;;;;;1931093;74;616056;-83
2022/11/12 05:03:12;;;;;;;27.43;17.50;;;;;;;;;;1917839;75;26273;-82
2022/11/12 05:05:40;;;;;;;21.03;17.00;;;;;;;;;;1921544;74;26262;-82
2022/11/12 05:08:09;;;;;;;21.83;17.53;;;;;;;;;;1921320;74;26740;-82
2022/11/12 05:10:38;;;;;;;20.43;17.23;;;;;;;;;;1921208;74;26689;-83
2022/11/12 05:13:06;;;;;;;23.60;17.70;;;;;;;;;;1917810;75;26520;-82
2022/11/12 05:15:35;;;;;;;19.17;17.10;;;;;;;;;;1917478;75;26761;-81
2022/11/12 05:18:03;;;;;;;20.33;17.70;;;;;;;;;;1921378;74;27530;-82
2022/11/12 05:20:32;;;;;;;20.93;17.03;;;;;;;;;;1917625;75;26275;-82
2022/11/12 05:23:00;;;;;;;20.73;17.67;;;;;;;;;;1921347;74;26350;-81
2022/11/12 05:25:28;;;;;;;20.60;17.30;;;;;;;;;;1921401;74;26252;-82
2022/11/12 05:27:57;;;;;;;21.70;17.87;;;;;;;;;;1917555;75;26567;-81
2022/11/12 05:30:25;;;;;;;20.90;17.43;;;;;;;;;;1917678;75;26175;-82
2022/11/12 05:32:53;;;;;;;21.90;17.50;;;;;;;;;;1917704;75;26231;-82
2022/11/12 05:35:22;;;;;;;21.37;18.73;;;;;;;;;;1921408;74;26436;-82
2022/11/12 05:37:50;;;;;;;20.90;17.50;;;;;;;;;;1921177;74;26650;-82
2022/11/12 05:40:18;;;;;;;21.97;17.87;;;;;;;;;;1921366;74;26283;-82
2022/11/12 05:42:47;;;;;;;20.50;18.03;;;;;;;;;;1921050;74;26178;-82
2022/11/12 05:45:15;;;;;;;21.67;18.03;;;;;;;;;;1921174;74;27671;-82
2022/11/12 05:47:44;;;;;;;21.40;17.80;;;;;;;;;;1921390;74;24673;-82
2022/11/12 05:50:12;;;;;;;21.33;18.70;;;;;;;;;;1917265;75;26242;-82
2022/11/12 05:52:40;;;;;;;22.43;19.33;;;;;;;;;;1921240;74;26230;-82
2022/11/12 05:55:09;;;;;;;20.50;18.37;;;;;;;;;;1917346;75;26339;-82
2022/11/12 05:57:38;;;;;;;21.33;19.03;;;;;;;;;;1920931;74;26229;-82
2022/11/12 06:00:08;;;;;;;21.50;18.53;;;;;;;;;;1921086;74;26245;-84
2022/11/12 06:02:36;;;;;;;22.80;18.60;;;;;;;;;;1920757;74;26226;-82
2022/11/12 06:05:05;;;;;;;22.05;19.40;;;;;;;;;;1917718;75;26226;-83
2022/11/12 06:07:33;;;;;;;24.20;19.70;;;;;;;;;;1916420;75;22569;-81
2022/11/12 06:10:01;;;;;;;21.35;18.25;;;;;;;;;;1917409;75;23227;-82
2022/11/12 06:12:31;;;;;;;21.17;18.97;;;;;;;;;;1917313;75;23690;-82
2022/11/12 06:14:59;;;;;;;21.07;18.77;;;;;;;;;;1917237;75;26305;-82
2022/11/12 06:17:27;;;;;;;22.67;19.27;;;;;;;;;;1917023;75;26267;-82
2022/11/12 06:19:56;;;;;;;20.33;18.23;;;;;;;;;;1921100;74;26300;-82
2022/11/12 06:22:24;;;;;;;26.70;19.10;;;;;;;;;;1917406;75;26242;-83
2022/11/12 06:24:52;;;;;;;21.23;18.87;;;;;;;;;;1917134;75;26254;-81
2022/11/12 06:27:22;;;;;;;22.40;19.57;;;;;;;;;;1917014;75;26238;-82
2022/11/12 06:29:51;;;;;;;21.40;19.10;;;;;;;;;;1921190;74;26601;-82
2022/11/12 06:32:19;;;;;;;21.53;19.10;;;;;;;;;;1917312;75;26799;-84
2022/11/12 06:34:47;;;;;;;24.03;19.50;;;;;;;;;;1917419;75;26242;-82
2022/11/12 06:37:16;;;;;;;24.30;21.00;;;;;;;;;;1920985;74;26230;-83
2022/11/12 06:39:44;;;;;;;23.53;20.70;;;;;;;;;;1920846;74;26922;-83
2022/11/12 06:42:12;;;;;;;23.47;20.80;;;;;;;;;;1917320;75;26749;-82
2022/11/12 06:44:40;;;;;;;22.93;20.17;;;;;;;;;;1917242;75;26250;-84
2022/11/12 06:47:09;;;;;;;27.07;20.63;;;;;;;;;;1917222;75;26235;-83
2022/11/12 06:49:37;;;;;;;23.43;20.70;;;;;;;;;;1917382;75;26246;-83
2022/11/12 06:52:06;;;;;;;22.93;19.23;;;;;;;;;;1917294;75;26536;-81
2022/11/12 06:54:34;;;;;;;26.70;20.47;;;;;;;;;;1917484;75;26246;-82
2022/11/12 06:57:02;;;;;;;22.60;20.27;;;;;;;;;;1917440;75;26234;-82
2022/11/12 06:59:30;;;;;;;23.27;20.60;;;;;;;;;;1917275;75;26245;-81
2022/11/12 07:01:59;;;;;;;25.63;21.37;;;;;;;;;;1917153;75;26305;-82
2022/11/12 07:04:27;;;;;;;24.13;20.67;;;;;;;;;;1917488;75;26559;-82
2022/11/12 07:06:55;;;;;;;24.97;20.73;;;;;;;;;;1917629;75;26210;-83
2022/11/12 07:09:24;;;;;;;25.67;21.27;;;;;;;;;;1921112;74;26366;-82
2022/11/12 07:11:52;;;;;;;24.63;21.20;;;;;;;;;;1921369;74;26229;-82
2022/11/12 07:14:21;;;;;;;24.83;22.23;;;;;;;;;;1917342;75;26324;-82
2022/11/12 07:16:49;;;;;;;24.90;22.23;;;;;;;;;;1917427;75;26476;-82
2022/11/12 07:19:17;;;;;;;23.33;20.97;;;;;;;;;;1921429;74;26328;-82
2022/11/12 07:21:46;;;;;;;26.43;21.23;;;;;;;;;;1917334;75;26332;-82
2022/11/12 07:24:14;;;;;;;25.77;21.83;;;;;;;;;;1917433;75;26231;-82
2022/11/12 07:26:42;;;;;;;26.37;22.40;;;;;;;;;;1917612;75;26308;-82
2022/11/12 07:29:11;;;;;;;25.03;22.17;;;;;;;;;;1921620;74;26249;-82
2022/11/12 07:31:39;;;;;;;27.03;22.73;;;;;;;;;;1917524;75;26296;-83
2022/11/12 07:34:07;;;;;;;28.23;23.10;;;;;;;;;;1921321;74;26922;-83
2022/11/12 07:36:36;;;;;;;29.17;24.87;;;;;;;;;;1917224;75;27249;-82
2022/11/12 07:39:04;;;;;;;27.77;24.73;;;;;;;;;;1917392;75;26246;-82
2022/11/12 07:41:32;;;;;;;32.17;26.73;;;;;;;;;;1917342;75;26695;-83
2022/11/12 07:44:01;;;;;;;30.20;26.17;;;;;;;;;;1921446;74;26639;-82
2022/11/12 07:46:29;;;;;;;31.60;27.43;;;;;;;;;;1917150;75;26432;-82
2022/11/12 07:48:57;;;;;;;35.70;27.73;;;;;;;;;;1921342;74;26241;-82
2022/11/12 07:51:26;;;;;;;32.53;27.23;;;;;;;;;;1917135;75;26300;-83
2022/11/12 07:53:56;;;;;;;29.83;26.47;;;;;;;;;;1917255;75;26282;-82
2022/11/12 07:56:25;;;;;;;32.40;27.53;;;;;;;;;;1917062;75;27107;-82
2022/11/12 07:58:53;;;;;;;30.30;27.23;;;;;;;;;;1917593;75;26795;-82
2022/11/12 08:01:24;;;;;;;29.67;26.43;;;;;;;;;;1916852;75;27164;-82
2022/11/12 08:03:53;;;;;;;27.97;25.07;;;;;;;;;;1917073;75;26324;-83
2022/11/12 08:06:21;;;;;;;26.70;23.03;;;;;;;;;;1920920;74;26331;-82
2022/11/12 08:08:52;;;;;;;26.63;23.93;;;;;;;;;;1916986;75;26685;-81
2022/11/12 08:11:20;;;;;;;26.00;23.30;;;;;;;;;;1920953;74;26246;-83
2022/11/12 08:13:48;;;;;;;25.60;21.17;;;;;;;;;;1917269;75;26235;-84
2022/11/12 08:16:18;;;;;;;23.43;21.03;;;;;;;;;;1920620;74;26257;-82
2022/11/12 08:18:46;;;;;;;23.63;20.90;;;;;;;;;;1917225;75;26828;-82
2022/11/12 08:21:16;;;;;;;23.27;20.60;;;;;;;;;;1916931;75;26250;-83
2022/11/12 08:23:44;;;;;;;24.40;21.80;;;;;;;;;;1917168;75;26810;-82
2022/11/12 08:26:13;;;;;;;23.80;21.27;;;;;;;;;;1917530;75;27301;-83
2022/11/12 08:28:42;;;;;;;25.23;22.63;;;;;;;;;;1921183;74;27341;-82
2022/11/12 08:31:11;;;;;;;24.73;22.13;;;;;;;;;;1921041;74;26921;-82
2022/11/12 08:33:41;;;;;;;25.00;22.30;;;;;;;;;;1921247;74;26779;-83
2022/11/12 08:36:10;;;;;;;28.57;24.87;;;;;;;;;;1917115;75;26308;-83
2022/11/12 08:38:38;;;;;;;26.23;23.47;;;;;;;;;;1921248;74;26257;-82
2022/11/12 08:41:07;;;;;;;26.97;22.93;;;;;;;;;;1921140;74;26949;-83
2022/11/12 08:43:36;;;;;;;25.83;23.07;;;;;;;;;;1917434;75;26241;-82
2022/11/12 08:46:04;;;;;;;27.43;24.37;;;;;;;;;;1917237;75;26239;-82
2022/11/12 08:48:33;;;;;;;25.70;23.00;;;;;;;;;;1921164;74;26689;-83
2022/11/12 08:51:02;;;;;;;25.47;22.87;;;;;;;;;;1917534;75;26714;-82
2022/11/12 08:53:30;;;;;;;24.43;22.13;;;;;;;;;;1917371;75;26717;-82
2022/11/12 08:55:59;;;;;;;25.37;22.97;;;;;;;;;;1921120;74;26250;-82
2022/11/12 08:58:28;;;;;;;25.43;22.77;;;;;;;;;;1917203;75;26328;-82
2022/11/12 09:00:57;;;;;;;24.30;21.80;;;;;;;;;;1920808;74;26311;-82
2022/11/12 09:03:26;;;;;;;22.93;20.60;;;;;;;;;;1921107;74;26325;-82
2022/11/12 09:05:54;;;;;;;22.23;20.03;;;;;;;;;;1917405;75;26239;-83
2022/11/12 09:08:23;;;;;;;22.37;20.13;;;;;;;;;;1917312;75;26240;-82
2022/11/12 09:10:51;;;;;;;21.13;18.80;;;;;;;;;;1921469;74;27436;-83
2022/11/12 09:13:20;;;;;;;21.20;19.10;;;;;;;;;;1917553;75;26353;-83
2022/11/12 09:15:48;;;;;;;20.27;17.90;;;;;;;;;;1917429;75;26549;-83
2022/11/12 09:18:18;;;;;;;18.73;16.83;;;;;;;;;;1921196;74;26771;-83
2022/11/12 09:20:46;;;;;;;18.73;16.83;;;;;;;;;;1921280;74;26242;-82
2022/11/12 09:23:16;;;;;;;17.53;15.73;;;;;;;;;;1921273;74;26710;-83
2022/11/12 09:25:45;;;;;;;17.20;15.43;;;;;;;;;;1921258;74;26408;-82
2022/11/12 09:28:14;;;;;;;15.70;14.30;;;;;;;;;;1917341;75;24191;-83
2022/11/12 09:30:45;;;;;;;15.53;14.03;;;;;;;;;;1917418;75;26533;-83
2022/11/12 09:33:13;;;;;;;15.93;14.33;;;;;;;;;;1920923;74;26246;-82
2022/11/12 09:35:44;;;;;;;16.23;14.63;;;;;;;;;;1917171;75;26245;-82
2022/11/12 09:38:13;;;;;;;17.00;14.73;;;;;;;;;;1920807;74;26802;-82
2022/11/12 09:41:03;;;;;;;15.13;13.67;;;;;;;;;;1921040;74;26301;-82
2022/11/12 09:43:34;;;;;;;14.73;13.27;;;;;;;;;;1917269;75;24778;-82
2022/11/12 09:46:03;;;;;;;14.30;12.93;;;;;;;;;;1921060;74;26328;-82
2022/11/12 09:48:34;;;;;;;15.73;13.40;;;;;;;;;;1916896;75;26339;-83
2022/11/12 09:51:04;;;;;;;13.23;12.03;;;;;;;;;;1917455;75;24195;-82
2022/11/12 09:53:34;;;;;;;13.53;12.27;;;;;;;;;;1920875;74;24718;-83
2022/11/12 09:56:05;;;;;;;14.63;13.23;;;;;;;;;;1917613;75;27031;-83
2022/11/12 09:58:34;;;;;;;14.07;12.70;;;;;;;;;;1917233;75;25305;-82
2022/11/12 10:01:03;;;;;;;13.93;12.70;;;;;;;;;;1917218;75;25035;-83
2022/11/12 10:03:34;;;;;;;14.00;12.60;;;;;;;;;;1917221;75;24616;-83
2022/11/12 10:06:05;;;;;;;13.23;11.97;;;;;;;;;;1921143;74;24202;-83
2022/11/12 10:08:37;;;;;;;12.63;11.53;;;;;;;;;;1917228;75;24187;-83
2022/11/12 10:11:08;;;;;;;12.30;11.20;;;;;;;;;;1917355;74;24292;-83
2022/11/12 10:13:40;;;;;;;12.60;11.50;;;;;;;;;;1916578;74;26820;-83
2022/11/12 10:19:27;;;;;;;10.50;9.60;;;;;;;;;;1917234;75;24167;-82
2022/11/12 10:21:57;;;;;;;10.80;9.73;;;;;;;;;;1869266;75;24212;-83
2022/11/12 10:24:27;;;;;;;11.77;10.57;;;;;;;;;;1921117;74;24258;-83
2022/11/12 10:26:57;;;;;;;10.70;9.70;;;;;;;;;;1917385;74;24208;-83
2022/11/12 10:29:28;;;;;;;10.37;9.47;;;;;;;;;;1921335;74;24252;-83
2022/11/12 10:31:57;;;;;;;10.93;9.83;;;;;;;;;;1917396;75;24249;-82
2022/11/12 10:34:25;;;;;;;10.20;9.30;;;;;;;;;;1921384;74;24198;-84
2022/11/12 10:36:54;;;;;;;11.83;10.00;;;;;;;;;;1921323;74;25294;-84
2022/11/12 10:39:33;;;;;;;12.50;10.23;;;;;;;;;;1917552;75;24198;-82
2022/11/12 10:42:03;;;;;;;11.07;9.97;;;;;;;;;;1921419;74;24264;-83
2022/11/12 10:44:31;;;;;;;11.10;10.13;;;;;;;;;;1921231;74;25004;-83
2022/11/12 10:47:17;;;;;;;11.67;10.37;;;;;;;;;;1917564;75;24280;-83
2022/11/12 10:49:50;;;;;;;10.20;9.20;;;;;;;;;;1917391;75;24191;-84
2022/11/12 10:52:21;;;;;;;10.97;9.97;;;;;;;;;;1915901;74;24170;-83
2022/11/12 10:54:51;;;;;;;10.47;9.47;;;;;;;;;;1917494;75;26351;-83
2022/11/12 10:57:21;;;;;;;11.10;10.10;;;;;;;;;;1914970;74;26339;-83
2022/11/12 10:59:52;;;;;;;10.50;9.57;;;;;;;;;;1918722;75;26209;-84
2022/11/12 11:02:21;;;;;;;10.60;9.60;;;;;;;;;;1914436;74;24198;-83
2022/11/12 11:04:49;;;;;;;10.87;9.80;;;;;;;;;;1917235;75;27166;-83
2022/11/12 11:07:21;;;;;;;10.20;9.27;;;;;;;;;;1921058;74;24186;-83
2022/11/12 11:09:52;;;;;;;10.50;9.50;;;;;;;;;;1922595;74;26657;-82
2022/11/12 11:12:25;;;;;;;10.67;9.60;;;;;;;;;;1918644;73;26205;-83
2022/11/12 11:15:06;;;;;;;10.53;9.53;;;;;;;;;;1917207;75;26358;-83
2022/11/12 11:17:35;;;;;;;10.20;9.17;;;;;;;;;;1921412;74;26372;-82
2022/11/12 11:20:05;;;;;;;11.40;9.23;;;;;;;;;;1921681;74;26352;-84
2022/11/12 11:22:38;;;;;;;10.53;9.03;;;;;;;;;;1917311;75;24240;-83
2022/11/12 11:25:18;;;;;;;10.80;9.53;;;;;;;;;;1917219;75;24258;-82
2022/11/12 11:27:50;;;;;;;11.87;9.67;;;;;;;;;;1921368;74;27449;-83
2022/11/12 11:30:20;;;;;;;11.07;9.47;;;;;;;;;;1921069;74;26245;-83
2022/11/12 11:32:59;;;;;;;10.67;9.17;;;;;;;;;;1921060;74;26310;-84
2022/11/12 11:35:29;;;;;;;9.67;8.77;;;;;;;;;;1917238;75;24249;-83
2022/11/12 11:38:01;;;;;;;9.77;8.83;;;;;;;;;;1921080;74;26255;-83
2022/11/12 11:40:31;;;;;;;9.17;8.27;;;;;;;;;;1920407;74;26269;-83
2022/11/12 11:43:06;;;;;;;8.90;8.00;;;;;;;;;;1921306;74;24178;-83
2022/11/12 11:45:36;;;;;;;9.00;8.10;;;;;;;;;;1916944;73;26260;-82
2022/11/12 11:48:07;;;;;;;7.87;7.17;;;;;;;;;;1916022;74;26323;-83
2022/11/12 11:50:36;;;;;;;8.07;7.27;;;;;;;;;;1916463;74;26988;-82
2022/11/12 11:53:09;;;;;;;8.80;7.30;;;;;;;;;;1921271;74;26745;-84
2022/11/12 11:55:45;;;;;;;7.63;6.93;;;;;;;;;;1921281;74;24198;-82
2022/11/12 11:58:16;;;;;;;7.93;7.13;;;;;;;;;;1917461;75;24188;-84
2022/11/12 12:00:49;;;;;;;7.30;6.50;;;;;;;;;;1916624;74;24199;-84
2022/11/12 12:03:19;;;;;;;6.57;5.80;;;;;;;;;;1920976;74;24194;-83
2022/11/12 12:05:52;;;;;;;6.50;5.83;;;;;;;;;;1917437;75;24268;-83
2022/11/12 12:08:23;;;;;;;5.80;5.30;;;;;;;;;;1916935;74;26650;-83
2022/11/12 12:10:54;;;;;;;6.27;5.33;;;;;;;;;;1917191;75;24308;-81
2022/11/12 12:13:24;;;;;;;6.00;5.47;;;;;;;;;;1917701;73;26729;-83
2022/11/12 12:16:07;;;;;;;6.30;5.43;;;;;;;;;;1917294;75;24211;-83
2022/11/12 12:18:36;;;;;;;5.93;5.40;;;;;;;;;;1916459;74;24198;-82
2022/11/12 12:21:08;;;;;;;6.33;5.10;;;;;;;;;;1917573;75;24716;-83
2022/11/12 12:23:37;;;;;;;5.80;5.20;;;;;;;;;;1917648;75;24140;-82
2022/11/12 12:26:08;;;;;;;7.13;4.93;;;;;;;;;;1917815;75;24180;-82
2022/11/12 12:28:38;;;;;;;6.00;5.40;;;;;;;;;;1917358;73;24190;-82
2022/11/12 12:31:08;;;;;;;6.07;5.47;;;;;;;;;;1917511;75;24720;-83
2022/11/12 12:33:38;;;;;;;7.07;4.70;;;;;;;;;;1917602;75;24275;-83
2022/11/12 12:36:08;;;;;;;6.03;4.77;;;;;;;;;;1917768;75;24638;-83
2022/11/12 12:38:39;;;;;;;5.13;4.60;;;;;;;;;;1917927;75;25374;-82
2022/11/12 12:41:09;;;;;;;5.23;4.73;;;;;;;;;;1917759;75;24195;-83
2022/11/12 12:43:39;;;;;;;6.13;4.93;;;;;;;;;;1917570;74;24195;-83
2022/11/12 12:46:09;;;;;;;5.30;4.40;;;;;;;;;;1921451;74;26786;-84
2022/11/12 12:48:38;;;;;;;5.73;4.77;;;;;;;;;;1921362;74;24194;-84
2022/11/12 12:51:07;;;;;;;5.13;4.40;;;;;;;;;;1917651;75;24182;-83
2022/11/12 12:53:35;;;;;;;5.33;4.83;;;;;;;;;;1917151;75;24179;-82
2022/11/12 12:56:05;;;;;;;4.73;4.13;;;;;;;;;;1917452;75;24195;-84
2022/11/12 12:58:35;;;;;;;6.13;4.50;;;;;;;;;;1921786;74;24283;-83
2022/11/12 13:01:04;;;;;;;4.63;4.20;;;;;;;;;;1919903;74;26248;-83
2022/11/12 13:03:50;;;;;;;5.07;3.90;;;;;;;;;;1917706;75;24191;-83
2022/11/12 13:06:26;;;;;;;5.73;4.27;;;;;;;;;;1917503;75;24183;-84
2022/11/12 13:08:57;;;;;;;4.37;3.93;;;;;;;;;;1921448;74;26331;-83
2022/11/12 13:14:47;;;;;;;5.23;4.07;;;;;;;;;;1917276;75;24175;-83
2022/11/12 13:17:17;;;;;;;4.43;3.60;;;;;;;;;;1917100;74;24319;-84
2022/11/12 13:19:46;;;;;;;4.43;3.27;;;;;;;;;;1912537;74;26752;-82
2022/11/12 13:22:34;;;;;;;4.27;3.70;;;;;;;;;;1918164;75;24195;-83
2022/11/12 13:25:03;;;;;;;5.47;3.50;;;;;;;;;;1917374;75;26303;-83
2022/11/12 13:27:59;;;;;;;5.63;3.40;;;;;;;;;;1917158;75;26691;-81
2022/11/12 13:30:44;;;;;;;6.00;3.27;;;;;;;;;;1917300;74;25353;-83
2022/11/12 13:33:20;;;;;;;3.73;2.93;;;;;;;;;;1921374;74;24680;-85
2022/11/12 13:35:48;;;;;;;5.73;3.47;;;;;;;;;;1917315;75;24667;-83
2022/11/12 13:38:18;;;;;;;3.53;2.90;;;;;;;;;;1917498;75;24710;-80
2022/11/12 13:40:48;;;;;;;5.53;3.07;;;;;;;;;;1917168;75;24175;-80
2022/11/12 13:43:27;;;;;;;4.80;3.00;;;;;;;;;;1917242;75;24203;-81
2022/11/12 13:45:59;;;;;;;3.20;2.90;;;;;;;;;;1920275;74;24808;-79
2022/11/12 13:48:29;;;;;;;5.90;3.40;;;;;;;;;;1920515;74;24255;-80
2022/11/12 13:50:59;;;;;;;4.83;3.80;;;;;;;;;;1916664;75;24651;-80
2022/11/12 13:53:27;;;;;;;4.67;3.70;;;;;;;;;;1916647;75;24257;-81
2022/11/12 13:55:56;;;;;;;4.60;3.60;;;;;;;;;;1920965;74;24610;-80
2022/11/12 13:58:28;;;;;;;6.30;3.70;;;;;;;;;;1917307;75;26778;-80
2022/11/12 14:00:58;;;;;;;3.70;3.37;;;;;;;;;;1916783;75;26697;-81
2022/11/12 14:03:28;;;;;;;4.23;3.67;;;;;;;;;;1917249;75;24218;-80
2022/11/12 14:05:57;;;;;;;4.53;3.70;;;;;;;;;;1916928;75;27236;-80
2022/11/12 14:08:45;;;;;;;6.10;3.77;;;;;;;;;;1917264;75;24268;-80
2022/11/12 14:11:35;;;;;;;4.73;4.03;;;;;;;;;;1916859;74;26717;-81
2022/11/12 14:14:07;;;;;;;4.13;3.73;;;;;;;;;;1904212;74;24221;-81
2022/11/12 14:16:39;;;;;;;4.00;3.60;;;;;;;;;;1917122;75;24285;-81
2022/11/12 14:19:35;;;;;;;4.47;4.00;;;;;;;;;;1920732;74;26637;-80
2022/11/12 14:22:11;;;;;;;4.33;3.93;;;;;;;;;;1870424;75;24212;-81
2022/11/12 14:24:40;;;;;;;5.13;4.40;;;;;;;;;;1921364;74;24185;-81
2022/11/12 14:27:21;;;;;;;4.23;3.87;;;;;;;;;;1921333;74;24272;-81
2022/11/12 14:29:51;;;;;;;4.10;3.80;;;;;;;;;;1921238;74;24345;-80
2022/11/12 14:32:19;;;;;;;4.90;4.10;;;;;;;;;;1918118;74;26272;-82
2022/11/12 14:34:48;;;;;;;4.87;3.67;;;;;;;;;;1921147;74;24190;-80
2022/11/12 14:37:18;;;;;;;5.50;3.93;;;;;;;;;;1917237;75;26620;-81
2022/11/12 14:39:47;;;;;;;4.20;3.37;;;;;;;;;;1919875;74;24205;-81
2022/11/12 14:42:15;;;;;;;4.30;3.93;;;;;;;;;;1922146;74;24256;-82
2022/11/12 14:44:43;;;;;;;4.27;3.87;;;;;;;;;;1918304;75;24178;-81
2022/11/12 14:47:12;;;;;;;4.87;3.83;;;;;;;;;;1921998;74;24202;-81
2022/11/12 14:49:42;;;;;;;4.10;3.70;;;;;;;;;;1918191;75;24270;-82
2022/11/12 14:52:12;;;;;;;4.63;4.13;;;;;;;;;;1921857;74;26319;-80
2022/11/12 14:54:45;;;;;;;4.80;4.40;;;;;;;;;;1923051;74;24235;-82
2022/11/12 14:57:17;;;;;;;4.73;3.70;;;;;;;;;;1920140;75;24185;-85
2022/11/12 14:59:45;;;;;;;4.83;4.00;;;;;;;;;;1920076;75;26334;-82
2022/11/12 15:02:14;;;;;;;3.87;3.57;;;;;;;;;;1925238;74;24202;-82
2022/11/12 15:04:44;;;;;;;5.00;3.80;;;;;;;;;;1921542;75;24178;-82